sensor_id;sensor_type;location;lat;lon;timestamp;temperature;humidity
770;DHT22;368;48.698;9.116;2023-09-19T00:00:30;15.80;99.90
770;DHT22;368;48.698;9.116;2023-09-19T00:02:59;15.70;99.90
770;DHT22;368;48.698;9.116;2023-09-19T00:05:28;15.60;99.90
770;DHT22;368;48.698;9.116;2023-09-19T00:07:57;15.60;99.90
770;DHT22;368;48.698;9.116;2023-09-19T00:10:24;15.60;99.90
770;DHT22;368;48.698;9.116;2023-09-19T00:12:56;15.60;99.90
770;DHT22;368;48.698;9.116;2023-09-19T00:15:25;15.60;99.90
770;DHT22;368;48.698;9.116;2023-09-19T00:17:54;15.50;99.90
770;DHT22;368;48.698;9.116;2023-09-19T00:20:21;15.60;99.90
770;DHT22;368;48.698;9.116;2023-09-19T00:22:50;15.50;99.90
770;DHT22;368;48.698;9.116;2023-09-19T00:25:19;15.50;99.90
770;DHT22;368;48.698;9.116;2023-09-19T00:27:46;15.50;99.90
770;DHT22;368;48.698;9.116;2023-09-19T00:30:15;15.70;99.90
770;DHT22;368;48.698;9.116;2023-09-19T00:32:45;15.50;99.90
770;DHT22;368;48.698;9.116;2023-09-19T00:35:13;15.60;99.90
770;DHT22;368;48.698;9.116;2023-09-19T00:37:40;15.50;99.90
770;DHT22;368;48.698;9.116;2023-09-19T00:40:10;15.50;99.90
770;DHT22;368;48.698;9.116;2023-09-19T00:42:38;15.70;99.90
770;DHT22;368;48.698;9.116;2023-09-19T00:45:07;15.50;99.90
770;DHT22;368;48.698;9.116;2023-09-19T00:47:36;15.40;99.90
770;DHT22;368;48.698;9.116;2023-09-19T00:50:04;15.50;99.90
770;DHT22;368;48.698;9.116;2023-09-19T00:52:33;15.50;99.90
770;DHT22;368;48.698;9.116;2023-09-19T00:55:02;15.50;99.90
770;DHT22;368;48.698;9.116;2023-09-19T00:57:30;15.50;99.90
770;DHT22;368;48.698;9.116;2023-09-19T01:00:00;15.60;99.90
770;DHT22;368;48.698;9.116;2023-09-19T01:02:31;15.30;99.90
770;DHT22;368;48.698;9.116;2023-09-19T01:04:58;15.40;99.90
770;DHT22;368;48.698;9.116;2023-09-19T01:07:25;15.50;99.90
770;DHT22;368;48.698;9.116;2023-09-19T01:09:52;15.60;99.90
770;DHT22;368;48.698;9.116;2023-09-19T01:12:28;15.40;99.90
770;DHT22;368;48.698;9.116;2023-09-19T01:15:06;15.40;99.90
770;DHT22;368;48.698;9.116;2023-09-19T01:17:42;15.10;99.90
770;DHT22;368;48.698;9.116;2023-09-19T01:20:25;15.40;99.90
770;DHT22;368;48.698;9.116;2023-09-19T01:23:00;15.40;99.90
770;DHT22;368;48.698;9.116;2023-09-19T01:28:33;15.40;99.90
770;DHT22;368;48.698;9.116;2023-09-19T01:31:09;15.60;99.90
770;DHT22;368;48.698;9.116;2023-09-19T01:33:56;15.20;99.90
770;DHT22;368;48.698;9.116;2023-09-19T01:36:25;15.10;99.90
770;DHT22;368;48.698;9.116;2023-09-19T01:38:53;15.50;99.90
770;DHT22;368;48.698;9.116;2023-09-19T01:41:26;15.20;99.90
770;DHT22;368;48.698;9.116;2023-09-19T01:43:55;15.50;99.90
770;DHT22;368;48.698;9.116;2023-09-19T01:46:25;15.40;99.90
770;DHT22;368;48.698;9.116;2023-09-19T01:49:01;15.30;99.90
770;DHT22;368;48.698;9.116;2023-09-19T01:51:34;15.50;99.90
770;DHT22;368;48.698;9.116;2023-09-19T01:54:09;15.40;99.90
770;DHT22;368;48.698;9.116;2023-09-19T01:56:40;15.50;99.90
770;DHT22;368;48.698;9.116;2023-09-19T01:59:13;15.50;99.90
770;DHT22;368;48.698;9.116;2023-09-19T02:01:45;15.60;99.90
770;DHT22;368;48.698;9.116;2023-09-19T02:04:12;15.50;99.90
770;DHT22;368;48.698;9.116;2023-09-19T02:06:40;15.60;99.90
770;DHT22;368;48.698;9.116;2023-09-19T02:09:10;15.60;99.90
770;DHT22;368;48.698;9.116;2023-09-19T02:11:36;15.40;99.90
770;DHT22;368;48.698;9.116;2023-09-19T02:14:04;15.50;99.90
770;DHT22;368;48.698;9.116;2023-09-19T02:16:33;15.30;99.90
770;DHT22;368;48.698;9.116;2023-09-19T02:19:02;15.50;99.90
770;DHT22;368;48.698;9.116;2023-09-19T02:21:31;15.50;99.90
770;DHT22;368;48.698;9.116;2023-09-19T02:23:58;15.40;99.90
770;DHT22;368;48.698;9.116;2023-09-19T02:26:25;15.50;99.90
770;DHT22;368;48.698;9.116;2023-09-19T02:28:52;15.40;99.90
770;DHT22;368;48.698;9.116;2023-09-19T02:31:19;15.30;99.90
770;DHT22;368;48.698;9.116;2023-09-19T02:33:46;15.20;99.90
770;DHT22;368;48.698;9.116;2023-09-19T02:36:14;15.00;99.90
770;DHT22;368;48.698;9.116;2023-09-19T02:38:42;15.20;99.90
770;DHT22;368;48.698;9.116;2023-09-19T02:41:09;15.10;99.90
770;DHT22;368;48.698;9.116;2023-09-19T02:43:37;14.90;99.90
770;DHT22;368;48.698;9.116;2023-09-19T02:46:04;15.20;99.90
770;DHT22;368;48.698;9.116;2023-09-19T02:48:31;15.20;99.90
770;DHT22;368;48.698;9.116;2023-09-19T02:51:00;15.20;99.90
770;DHT22;368;48.698;9.116;2023-09-19T02:53:28;14.90;99.90
770;DHT22;368;48.698;9.116;2023-09-19T02:55:57;15.10;99.90
770;DHT22;368;48.698;9.116;2023-09-19T02:58:24;15.20;99.90
770;DHT22;368;48.698;9.116;2023-09-19T03:00:53;14.90;99.90
770;DHT22;368;48.698;9.116;2023-09-19T03:03:20;15.10;99.90
770;DHT22;368;48.698;9.116;2023-09-19T03:05:48;15.30;99.90
770;DHT22;368;48.698;9.116;2023-09-19T03:08:17;15.10;99.90
770;DHT22;368;48.698;9.116;2023-09-19T03:10:47;15.30;99.90
770;DHT22;368;48.698;9.116;2023-09-19T03:13:14;15.20;99.90
770;DHT22;368;48.698;9.116;2023-09-19T03:15:41;15.40;99.90
770;DHT22;368;48.698;9.116;2023-09-19T03:18:09;15.40;99.90
770;DHT22;368;48.698;9.116;2023-09-19T03:20:36;15.30;99.90
770;DHT22;368;48.698;9.116;2023-09-19T03:23:04;15.30;99.90
770;DHT22;368;48.698;9.116;2023-09-19T03:25:33;15.30;99.90
770;DHT22;368;48.698;9.116;2023-09-19T03:28:01;15.50;99.90
770;DHT22;368;48.698;9.116;2023-09-19T03:30:31;15.50;99.90
770;DHT22;368;48.698;9.116;2023-09-19T03:32:59;15.40;99.90
770;DHT22;368;48.698;9.116;2023-09-19T03:35:26;15.50;99.90
770;DHT22;368;48.698;9.116;2023-09-19T03:37:53;15.20;99.90
770;DHT22;368;48.698;9.116;2023-09-19T03:40:19;15.40;99.90
770;DHT22;368;48.698;9.116;2023-09-19T03:42:47;15.40;99.90
770;DHT22;368;48.698;9.116;2023-09-19T03:45:15;15.60;99.90
770;DHT22;368;48.698;9.116;2023-09-19T03:47:44;15.50;99.90
770;DHT22;368;48.698;9.116;2023-09-19T03:50:12;15.40;99.90
770;DHT22;368;48.698;9.116;2023-09-19T03:52:40;15.40;99.90
770;DHT22;368;48.698;9.116;2023-09-19T03:55:08;15.40;99.90
770;DHT22;368;48.698;9.116;2023-09-19T03:57:35;15.40;99.90
770;DHT22;368;48.698;9.116;2023-09-19T04:00:02;15.40;99.90
770;DHT22;368;48.698;9.116;2023-09-19T04:02:31;15.40;99.90
770;DHT22;368;48.698;9.116;2023-09-19T04:04:59;15.30;99.90
770;DHT22;368;48.698;9.116;2023-09-19T04:07:26;15.50;99.90
770;DHT22;368;48.698;9.116;2023-09-19T04:09:54;15.40;99.90
770;DHT22;368;48.698;9.116;2023-09-19T04:12:21;15.20;99.90
770;DHT22;368;48.698;9.116;2023-09-19T04:14:48;15.20;99.90
770;DHT22;368;48.698;9.116;2023-09-19T04:17:15;15.00;99.90
770;DHT22;368;48.698;9.116;2023-09-19T04:19:44;15.10;99.90
770;DHT22;368;48.698;9.116;2023-09-19T04:22:11;14.90;99.90
770;DHT22;368;48.698;9.116;2023-09-19T04:24:38;15.00;99.90
770;DHT22;368;48.698;9.116;2023-09-19T04:27:05;15.00;99.90
770;DHT22;368;48.698;9.116;2023-09-19T04:29:32;15.30;99.90
770;DHT22;368;48.698;9.116;2023-09-19T04:32:00;15.30;99.90
770;DHT22;368;48.698;9.116;2023-09-19T04:34:29;15.20;99.90
770;DHT22;368;48.698;9.116;2023-09-19T04:36:58;15.20;99.90
770;DHT22;368;48.698;9.116;2023-09-19T04:39:26;15.30;99.90
770;DHT22;368;48.698;9.116;2023-09-19T04:41:52;15.10;99.90
770;DHT22;368;48.698;9.116;2023-09-19T04:44:20;15.20;99.90
770;DHT22;368;48.698;9.116;2023-09-19T04:46:47;15.10;99.90
770;DHT22;368;48.698;9.116;2023-09-19T04:49:14;15.20;99.90
770;DHT22;368;48.698;9.116;2023-09-19T04:51:41;15.10;99.90
770;DHT22;368;48.698;9.116;2023-09-19T04:54:09;15.20;99.90
770;DHT22;368;48.698;9.116;2023-09-19T04:56:36;15.30;99.90
770;DHT22;368;48.698;9.116;2023-09-19T04:59:05;15.30;99.90
770;DHT22;368;48.698;9.116;2023-09-19T05:01:32;15.20;99.90
770;DHT22;368;48.698;9.116;2023-09-19T05:03:59;15.20;99.90
770;DHT22;368;48.698;9.116;2023-09-19T05:06:26;15.40;99.90
770;DHT22;368;48.698;9.116;2023-09-19T05:08:53;15.30;99.90
770;DHT22;368;48.698;9.116;2023-09-19T05:11:21;15.30;99.90
770;DHT22;368;48.698;9.116;2023-09-19T05:13:50;15.50;99.90
770;DHT22;368;48.698;9.116;2023-09-19T05:16:18;15.40;99.90
770;DHT22;368;48.698;9.116;2023-09-19T05:18:44;15.50;99.90
770;DHT22;368;48.698;9.116;2023-09-19T05:21:11;15.30;99.90
770;DHT22;368;48.698;9.116;2023-09-19T05:23:38;15.40;99.90
770;DHT22;368;48.698;9.116;2023-09-19T05:26:05;15.20;99.90
770;DHT22;368;48.698;9.116;2023-09-19T05:28:33;15.50;99.90
770;DHT22;368;48.698;9.116;2023-09-19T05:31:01;15.10;99.90
770;DHT22;368;48.698;9.116;2023-09-19T05:33:28;15.20;99.90
770;DHT22;368;48.698;9.116;2023-09-19T05:35:56;15.10;99.90
770;DHT22;368;48.698;9.116;2023-09-19T05:38:23;15.20;99.90
770;DHT22;368;48.698;9.116;2023-09-19T05:40:50;15.30;99.90
770;DHT22;368;48.698;9.116;2023-09-19T05:43:17;15.40;99.90
770;DHT22;368;48.698;9.116;2023-09-19T05:45:45;15.20;99.90
770;DHT22;368;48.698;9.116;2023-09-19T05:48:13;15.40;99.90
770;DHT22;368;48.698;9.116;2023-09-19T05:50:41;15.40;99.90
770;DHT22;368;48.698;9.116;2023-09-19T05:53:08;15.50;99.90
770;DHT22;368;48.698;9.116;2023-09-19T05:55:37;15.50;99.90
770;DHT22;368;48.698;9.116;2023-09-19T05:58:04;15.50;99.90
770;DHT22;368;48.698;9.116;2023-09-19T06:00:31;15.60;99.90
770;DHT22;368;48.698;9.116;2023-09-19T06:02:59;15.60;99.90
770;DHT22;368;48.698;9.116;2023-09-19T06:05:27;15.60;99.90
770;DHT22;368;48.698;9.116;2023-09-19T06:07:55;15.30;99.90
770;DHT22;368;48.698;9.116;2023-09-19T06:10:26;15.50;99.90
770;DHT22;368;48.698;9.116;2023-09-19T06:12:53;15.40;99.90
770;DHT22;368;48.698;9.116;2023-09-19T06:15:20;15.30;99.90
770;DHT22;368;48.698;9.116;2023-09-19T06:17:49;15.20;99.90
770;DHT22;368;48.698;9.116;2023-09-19T06:20:17;15.00;99.90
770;DHT22;368;48.698;9.116;2023-09-19T06:22:45;14.80;99.90
770;DHT22;368;48.698;9.116;2023-09-19T06:25:13;15.00;99.90
770;DHT22;368;48.698;9.116;2023-09-19T06:27:45;15.00;99.90
770;DHT22;368;48.698;9.116;2023-09-19T06:30:12;14.80;99.90
770;DHT22;368;48.698;9.116;2023-09-19T06:32:39;14.60;99.90
770;DHT22;368;48.698;9.116;2023-09-19T06:35:09;14.80;99.90
770;DHT22;368;48.698;9.116;2023-09-19T06:37:38;14.50;99.90
770;DHT22;368;48.698;9.116;2023-09-19T06:40:07;14.60;99.90
770;DHT22;368;48.698;9.116;2023-09-19T06:42:39;14.70;99.90
770;DHT22;368;48.698;9.116;2023-09-19T06:45:07;14.80;99.90
770;DHT22;368;48.698;9.116;2023-09-19T06:47:34;15.00;99.90
770;DHT22;368;48.698;9.116;2023-09-19T06:50:02;15.00;99.90
770;DHT22;368;48.698;9.116;2023-09-19T06:52:31;15.20;99.90
770;DHT22;368;48.698;9.116;2023-09-19T06:54:59;15.00;99.90
770;DHT22;368;48.698;9.116;2023-09-19T06:57:28;15.30;99.90
770;DHT22;368;48.698;9.116;2023-09-19T06:59:56;15.20;99.90
770;DHT22;368;48.698;9.116;2023-09-19T07:02:23;15.60;99.90
770;DHT22;368;48.698;9.116;2023-09-19T07:04:50;15.80;99.90
770;DHT22;368;48.698;9.116;2023-09-19T07:07:17;16.10;99.90
770;DHT22;368;48.698;9.116;2023-09-19T07:09:44;16.40;99.90
770;DHT22;368;48.698;9.116;2023-09-19T07:12:12;16.50;99.90
770;DHT22;368;48.698;9.116;2023-09-19T07:14:39;16.60;99.90
770;DHT22;368;48.698;9.116;2023-09-19T07:17:06;16.60;99.90
770;DHT22;368;48.698;9.116;2023-09-19T07:19:33;16.70;99.90
770;DHT22;368;48.698;9.116;2023-09-19T07:22:00;16.70;99.90
770;DHT22;368;48.698;9.116;2023-09-19T07:24:28;16.70;99.90
770;DHT22;368;48.698;9.116;2023-09-19T07:26:55;16.50;99.90
770;DHT22;368;48.698;9.116;2023-09-19T07:29:23;16.80;99.90
770;DHT22;368;48.698;9.116;2023-09-19T07:31:51;16.70;99.90
770;DHT22;368;48.698;9.116;2023-09-19T07:34:18;17.10;99.90
770;DHT22;368;48.698;9.116;2023-09-19T07:36:46;17.20;99.90
770;DHT22;368;48.698;9.116;2023-09-19T07:39:13;17.20;99.90
770;DHT22;368;48.698;9.116;2023-09-19T07:41:40;17.20;99.90
770;DHT22;368;48.698;9.116;2023-09-19T07:44:07;17.50;99.90
770;DHT22;368;48.698;9.116;2023-09-19T07:46:35;17.80;99.90
770;DHT22;368;48.698;9.116;2023-09-19T07:49:02;17.90;99.90
770;DHT22;368;48.698;9.116;2023-09-19T07:51:30;17.90;99.90
770;DHT22;368;48.698;9.116;2023-09-19T07:53:58;17.90;99.90
770;DHT22;368;48.698;9.116;2023-09-19T07:56:25;18.10;99.90
770;DHT22;368;48.698;9.116;2023-09-19T07:58:53;18.20;99.90
770;DHT22;368;48.698;9.116;2023-09-19T08:01:21;18.30;99.90
770;DHT22;368;48.698;9.116;2023-09-19T08:03:50;18.80;99.90
770;DHT22;368;48.698;9.116;2023-09-19T08:06:17;19.40;99.90
770;DHT22;368;48.698;9.116;2023-09-19T08:08:44;20.00;99.90
770;DHT22;368;48.698;9.116;2023-09-19T08:11:11;20.30;99.90
770;DHT22;368;48.698;9.116;2023-09-19T08:13:38;20.90;99.90
770;DHT22;368;48.698;9.116;2023-09-19T08:16:09;21.00;99.90
770;DHT22;368;48.698;9.116;2023-09-19T08:18:36;20.50;99.90
770;DHT22;368;48.698;9.116;2023-09-19T08:21:07;20.60;99.90
770;DHT22;368;48.698;9.116;2023-09-19T08:23:36;20.30;99.90
770;DHT22;368;48.698;9.116;2023-09-19T08:26:04;19.60;99.90
770;DHT22;368;48.698;9.116;2023-09-19T08:28:33;19.80;99.90
770;DHT22;368;48.698;9.116;2023-09-19T08:31:02;20.50;99.90
770;DHT22;368;48.698;9.116;2023-09-19T08:33:31;20.50;99.90
770;DHT22;368;48.698;9.116;2023-09-19T08:35:58;20.10;99.90
770;DHT22;368;48.698;9.116;2023-09-19T08:38:27;19.60;99.90
770;DHT22;368;48.698;9.116;2023-09-19T08:40:57;19.30;99.90
770;DHT22;368;48.698;9.116;2023-09-19T08:43:25;19.10;99.90
770;DHT22;368;48.698;9.116;2023-09-19T08:45:56;18.80;99.90
770;DHT22;368;48.698;9.116;2023-09-19T08:48:26;18.70;99.90
770;DHT22;368;48.698;9.116;2023-09-19T08:50:56;19.00;99.90
770;DHT22;368;48.698;9.116;2023-09-19T08:53:33;20.00;99.90
770;DHT22;368;48.698;9.116;2023-09-19T08:56:03;20.30;99.90
770;DHT22;368;48.698;9.116;2023-09-19T08:58:43;20.70;99.90
770;DHT22;368;48.698;9.116;2023-09-19T09:01:13;21.90;99.90
770;DHT22;368;48.698;9.116;2023-09-19T09:03:42;22.00;99.90
770;DHT22;368;48.698;9.116;2023-09-19T09:06:13;22.80;99.90
770;DHT22;368;48.698;9.116;2023-09-19T09:08:43;23.20;99.90
770;DHT22;368;48.698;9.116;2023-09-19T09:11:11;23.10;99.90
770;DHT22;368;48.698;9.116;2023-09-19T09:13:38;22.40;99.90
770;DHT22;368;48.698;9.116;2023-09-19T09:16:07;23.00;97.70
770;DHT22;368;48.698;9.116;2023-09-19T09:18:33;22.60;98.80
770;DHT22;368;48.698;9.116;2023-09-19T09:21:00;23.00;97.60
770;DHT22;368;48.698;9.116;2023-09-19T09:23:27;23.10;96.80
770;DHT22;368;48.698;9.116;2023-09-19T09:25:57;22.60;97.60
770;DHT22;368;48.698;9.116;2023-09-19T09:28:25;23.70;95.10
770;DHT22;368;48.698;9.116;2023-09-19T09:30:53;23.60;95.60
770;DHT22;368;48.698;9.116;2023-09-19T09:33:21;22.40;94.80
770;DHT22;368;48.698;9.116;2023-09-19T09:35:52;22.70;94.50
770;DHT22;368;48.698;9.116;2023-09-19T09:38:20;23.10;93.40
770;DHT22;368;48.698;9.116;2023-09-19T09:40:48;23.50;93.30
770;DHT22;368;48.698;9.116;2023-09-19T09:43:28;23.40;92.30
770;DHT22;368;48.698;9.116;2023-09-19T09:46:10;22.30;92.70
770;DHT22;368;48.698;9.116;2023-09-19T09:49:03;22.40;92.80
770;DHT22;368;48.698;9.116;2023-09-19T09:51:59;24.00;92.40
770;DHT22;368;48.698;9.116;2023-09-19T09:54:31;23.90;91.00
770;DHT22;368;48.698;9.116;2023-09-19T09:57:03;23.70;91.70
770;DHT22;368;48.698;9.116;2023-09-19T09:59:49;24.60;90.20
770;DHT22;368;48.698;9.116;2023-09-19T10:02:17;24.30;90.50
770;DHT22;368;48.698;9.116;2023-09-19T10:04:52;24.60;87.30
770;DHT22;368;48.698;9.116;2023-09-19T10:07:25;23.70;89.90
770;DHT22;368;48.698;9.116;2023-09-19T10:09:58;23.70;88.70
770;DHT22;368;48.698;9.116;2023-09-19T10:12:31;24.10;86.20
770;DHT22;368;48.698;9.116;2023-09-19T10:15:00;24.90;84.20
770;DHT22;368;48.698;9.116;2023-09-19T10:17:30;24.00;83.20
770;DHT22;368;48.698;9.116;2023-09-19T10:20:01;21.80;90.40
770;DHT22;368;48.698;9.116;2023-09-19T10:22:35;20.70;91.30
770;DHT22;368;48.698;9.116;2023-09-19T10:25:04;19.90;93.10
770;DHT22;368;48.698;9.116;2023-09-19T10:27:33;21.20;92.10
770;DHT22;368;48.698;9.116;2023-09-19T10:30:08;23.50;89.80
770;DHT22;368;48.698;9.116;2023-09-19T10:32:37;23.70;87.50
770;DHT22;368;48.698;9.116;2023-09-19T10:35:07;24.40;86.10
770;DHT22;368;48.698;9.116;2023-09-19T10:37:35;24.90;84.80
770;DHT22;368;48.698;9.116;2023-09-19T10:40:06;24.00;84.30
770;DHT22;368;48.698;9.116;2023-09-19T10:42:38;22.30;88.50
770;DHT22;368;48.698;9.116;2023-09-19T10:45:09;21.30;90.80
770;DHT22;368;48.698;9.116;2023-09-19T10:47:39;23.00;90.10
770;DHT22;368;48.698;9.116;2023-09-19T10:50:06;25.00;85.70
770;DHT22;368;48.698;9.116;2023-09-19T10:52:40;25.30;81.70
770;DHT22;368;48.698;9.116;2023-09-19T10:55:09;25.20;82.50
770;DHT22;368;48.698;9.116;2023-09-19T10:57:44;26.30;80.80
770;DHT22;368;48.698;9.116;2023-09-19T11:00:14;27.00;78.20
770;DHT22;368;48.698;9.116;2023-09-19T11:03:17;26.50;76.50
770;DHT22;368;48.698;9.116;2023-09-19T11:06:11;26.10;76.50
770;DHT22;368;48.698;9.116;2023-09-19T11:08:53;25.70;76.50
770;DHT22;368;48.698;9.116;2023-09-19T11:11:42;25.60;78.40
770;DHT22;368;48.698;9.116;2023-09-19T11:14:15;24.00;83.20
770;DHT22;368;48.698;9.116;2023-09-19T11:20:24;27.00;77.70
770;DHT22;368;48.698;9.116;2023-09-19T11:23:21;25.30;79.50
770;DHT22;368;48.698;9.116;2023-09-19T11:25:56;25.00;80.50
770;DHT22;368;48.698;9.116;2023-09-19T11:28:36;26.30;77.00
770;DHT22;368;48.698;9.116;2023-09-19T11:34:41;25.80;79.30
770;DHT22;368;48.698;9.116;2023-09-19T11:40:25;24.80;78.40
770;DHT22;368;48.698;9.116;2023-09-19T11:42:53;25.40;78.30
770;DHT22;368;48.698;9.116;2023-09-19T11:46:04;25.20;78.10
770;DHT22;368;48.698;9.116;2023-09-19T11:48:32;26.00;76.50
770;DHT22;368;48.698;9.116;2023-09-19T11:51:18;26.30;75.50
770;DHT22;368;48.698;9.116;2023-09-19T11:53:48;27.00;73.80
770;DHT22;368;48.698;9.116;2023-09-19T11:56:16;26.80;74.00
770;DHT22;368;48.698;9.116;2023-09-19T11:58:44;26.40;74.20
770;DHT22;368;48.698;9.116;2023-09-19T12:01:13;24.60;79.20
770;DHT22;368;48.698;9.116;2023-09-19T12:03:47;23.60;81.80
770;DHT22;368;48.698;9.116;2023-09-19T12:06:16;23.50;82.80
770;DHT22;368;48.698;9.116;2023-09-19T12:08:44;23.70;82.20
770;DHT22;368;48.698;9.116;2023-09-19T12:11:13;23.90;81.90
770;DHT22;368;48.698;9.116;2023-09-19T12:13:42;24.30;80.90
770;DHT22;368;48.698;9.116;2023-09-19T12:16:14;25.90;77.90
770;DHT22;368;48.698;9.116;2023-09-19T12:18:42;26.50;78.10
770;DHT22;368;48.698;9.116;2023-09-19T12:21:23;27.50;73.00
770;DHT22;368;48.698;9.116;2023-09-19T12:24:03;26.30;74.90
770;DHT22;368;48.698;9.116;2023-09-19T12:26:38;27.30;72.80
770;DHT22;368;48.698;9.116;2023-09-19T12:29:11;27.40;74.10
770;DHT22;368;48.698;9.116;2023-09-19T12:31:50;28.80;69.20
770;DHT22;368;48.698;9.116;2023-09-19T12:34:20;28.10;69.30
770;DHT22;368;48.698;9.116;2023-09-19T12:36:49;28.60;68.60
770;DHT22;368;48.698;9.116;2023-09-19T12:39:30;27.50;71.10
770;DHT22;368;48.698;9.116;2023-09-19T12:41:57;27.90;71.00
770;DHT22;368;48.698;9.116;2023-09-19T12:44:24;28.70;68.50
770;DHT22;368;48.698;9.116;2023-09-19T12:46:51;28.70;71.50
770;DHT22;368;48.698;9.116;2023-09-19T12:49:20;29.60;67.90
770;DHT22;368;48.698;9.116;2023-09-19T12:51:49;29.90;65.50
770;DHT22;368;48.698;9.116;2023-09-19T12:54:21;29.70;64.40
770;DHT22;368;48.698;9.116;2023-09-19T12:56:48;29.30;64.30
770;DHT22;368;48.698;9.116;2023-09-19T12:59:15;29.50;65.00
770;DHT22;368;48.698;9.116;2023-09-19T13:01:43;29.80;64.90
770;DHT22;368;48.698;9.116;2023-09-19T13:04:15;29.70;64.00
770;DHT22;368;48.698;9.116;2023-09-19T13:06:45;28.70;65.30
770;DHT22;368;48.698;9.116;2023-09-19T13:09:15;28.10;67.30
770;DHT22;368;48.698;9.116;2023-09-19T13:11:43;29.50;66.00
770;DHT22;368;48.698;9.116;2023-09-19T13:14:16;29.30;64.30
770;DHT22;368;48.698;9.116;2023-09-19T13:16:57;28.80;65.40
770;DHT22;368;48.698;9.116;2023-09-19T13:19:41;28.80;66.10
770;DHT22;368;48.698;9.116;2023-09-19T13:22:41;28.70;65.50
770;DHT22;368;48.698;9.116;2023-09-19T13:25:16;28.50;66.30
770;DHT22;368;48.698;9.116;2023-09-19T13:27:46;28.10;68.00
770;DHT22;368;48.698;9.116;2023-09-19T13:30:14;28.20;67.20
770;DHT22;368;48.698;9.116;2023-09-19T13:32:42;28.00;67.00
770;DHT22;368;48.698;9.116;2023-09-19T13:35:09;28.20;67.40
770;DHT22;368;48.698;9.116;2023-09-19T13:37:37;28.40;65.40
770;DHT22;368;48.698;9.116;2023-09-19T13:40:07;28.60;64.10
770;DHT22;368;48.698;9.116;2023-09-19T13:42:36;27.20;65.80
770;DHT22;368;48.698;9.116;2023-09-19T13:45:03;27.70;67.80
770;DHT22;368;48.698;9.116;2023-09-19T13:47:31;28.80;66.80
770;DHT22;368;48.698;9.116;2023-09-19T13:49:58;29.20;62.10
770;DHT22;368;48.698;9.116;2023-09-19T13:52:26;27.90;64.50
770;DHT22;368;48.698;9.116;2023-09-19T13:54:55;28.50;64.40
770;DHT22;368;48.698;9.116;2023-09-19T13:57:22;29.10;63.10
770;DHT22;368;48.698;9.116;2023-09-19T13:59:51;27.70;62.80
770;DHT22;368;48.698;9.116;2023-09-19T14:02:19;27.90;64.60
770;DHT22;368;48.698;9.116;2023-09-19T14:04:48;28.90;63.70
770;DHT22;368;48.698;9.116;2023-09-19T14:07:14;28.50;64.10
770;DHT22;368;48.698;9.116;2023-09-19T14:09:43;28.10;62.70
770;DHT22;368;48.698;9.116;2023-09-19T14:12:10;28.40;63.50
770;DHT22;368;48.698;9.116;2023-09-19T14:14:37;29.10;64.00
770;DHT22;368;48.698;9.116;2023-09-19T14:17:05;28.10;64.70
770;DHT22;368;48.698;9.116;2023-09-19T14:19:32;28.70;64.10
770;DHT22;368;48.698;9.116;2023-09-19T14:22:00;29.20;62.00
770;DHT22;368;48.698;9.116;2023-09-19T14:24:33;27.80;61.80
770;DHT22;368;48.698;9.116;2023-09-19T14:27:00;27.20;65.90
770;DHT22;368;48.698;9.116;2023-09-19T14:29:29;26.50;65.70
770;DHT22;368;48.698;9.116;2023-09-19T14:31:56;26.40;66.80
770;DHT22;368;48.698;9.116;2023-09-19T14:34:24;27.10;67.50
770;DHT22;368;48.698;9.116;2023-09-19T14:36:51;27.90;63.30
770;DHT22;368;48.698;9.116;2023-09-19T14:39:19;27.50;62.80
770;DHT22;368;48.698;9.116;2023-09-19T14:41:46;26.60;65.80
770;DHT22;368;48.698;9.116;2023-09-19T14:44:13;26.50;65.60
770;DHT22;368;48.698;9.116;2023-09-19T14:46:41;26.90;64.80
770;DHT22;368;48.698;9.116;2023-09-19T14:49:09;27.00;62.50
770;DHT22;368;48.698;9.116;2023-09-19T14:51:37;27.30;63.20
770;DHT22;368;48.698;9.116;2023-09-19T14:54:06;26.80;63.10
770;DHT22;368;48.698;9.116;2023-09-19T14:56:33;27.40;63.90
770;DHT22;368;48.698;9.116;2023-09-19T14:59:00;26.40;64.70
770;DHT22;368;48.698;9.116;2023-09-19T15:01:28;27.10;63.00
770;DHT22;368;48.698;9.116;2023-09-19T15:03:55;27.30;63.60
770;DHT22;368;48.698;9.116;2023-09-19T15:06:21;27.00;63.20
770;DHT22;368;48.698;9.116;2023-09-19T15:08:49;26.70;62.80
770;DHT22;368;48.698;9.116;2023-09-19T15:11:17;26.30;65.00
770;DHT22;368;48.698;9.116;2023-09-19T15:13:46;26.20;65.30
770;DHT22;368;48.698;9.116;2023-09-19T15:16:13;26.10;66.90
770;DHT22;368;48.698;9.116;2023-09-19T15:18:41;26.30;66.20
770;DHT22;368;48.698;9.116;2023-09-19T15:21:09;26.60;65.90
770;DHT22;368;48.698;9.116;2023-09-19T15:23:37;26.80;64.70
770;DHT22;368;48.698;9.116;2023-09-19T15:26:06;26.60;65.70
770;DHT22;368;48.698;9.116;2023-09-19T15:28:34;26.20;65.10
770;DHT22;368;48.698;9.116;2023-09-19T15:31:02;26.60;65.00
770;DHT22;368;48.698;9.116;2023-09-19T15:33:30;26.10;65.60
770;DHT22;368;48.698;9.116;2023-09-19T15:36:03;25.30;68.20
770;DHT22;368;48.698;9.116;2023-09-19T15:38:31;24.70;68.40
770;DHT22;368;48.698;9.116;2023-09-19T15:40:58;24.60;68.60
770;DHT22;368;48.698;9.116;2023-09-19T15:43:26;24.50;69.10
770;DHT22;368;48.698;9.116;2023-09-19T15:45:53;24.30;70.00
770;DHT22;368;48.698;9.116;2023-09-19T15:48:20;23.90;71.50
770;DHT22;368;48.698;9.116;2023-09-19T15:50:47;23.40;72.40
770;DHT22;368;48.698;9.116;2023-09-19T15:53:14;22.70;73.50
770;DHT22;368;48.698;9.116;2023-09-19T15:55:42;22.50;75.60
770;DHT22;368;48.698;9.116;2023-09-19T15:58:10;22.50;76.90
770;DHT22;368;48.698;9.116;2023-09-19T16:00:41;22.80;74.10
770;DHT22;368;48.698;9.116;2023-09-19T16:03:07;22.70;74.90
770;DHT22;368;48.698;9.116;2023-09-19T16:05:35;22.80;74.90
770;DHT22;368;48.698;9.116;2023-09-19T16:08:06;22.50;75.10
770;DHT22;368;48.698;9.116;2023-09-19T16:10:35;22.40;76.50
770;DHT22;368;48.698;9.116;2023-09-19T16:13:03;22.30;77.20
770;DHT22;368;48.698;9.116;2023-09-19T16:15:30;22.10;77.70
770;DHT22;368;48.698;9.116;2023-09-19T16:17:58;22.10;77.80
770;DHT22;368;48.698;9.116;2023-09-19T16:20:25;21.90;78.40
770;DHT22;368;48.698;9.116;2023-09-19T16:22:53;21.60;78.50
770;DHT22;368;48.698;9.116;2023-09-19T16:25:20;21.40;79.10
770;DHT22;368;48.698;9.116;2023-09-19T16:27:47;21.30;80.20
770;DHT22;368;48.698;9.116;2023-09-19T16:30:14;21.20;81.60
770;DHT22;368;48.698;9.116;2023-09-19T16:32:41;21.20;82.50
770;DHT22;368;48.698;9.116;2023-09-19T16:35:09;21.10;82.90
770;DHT22;368;48.698;9.116;2023-09-19T16:37:37;21.00;83.20
770;DHT22;368;48.698;9.116;2023-09-19T16:40:05;20.80;84.50
770;DHT22;368;48.698;9.116;2023-09-19T16:42:34;20.80;84.80
770;DHT22;368;48.698;9.116;2023-09-19T16:45:01;20.80;85.80
770;DHT22;368;48.698;9.116;2023-09-19T16:47:27;20.70;86.40
770;DHT22;368;48.698;9.116;2023-09-19T16:49:54;20.60;86.80
770;DHT22;368;48.698;9.116;2023-09-19T16:52:22;20.50;88.60
770;DHT22;368;48.698;9.116;2023-09-19T16:54:49;20.40;89.40
770;DHT22;368;48.698;9.116;2023-09-19T16:57:17;20.20;89.20
770;DHT22;368;48.698;9.116;2023-09-19T16:59:44;20.10;90.10
770;DHT22;368;48.698;9.116;2023-09-19T17:02:11;20.00;90.60